sensor_id;sensor_type;location;lat;lon;timestamp;temperature;humidity
1329;DHT22;658;48.820;9.354;2022-07-06T00:02:12;23.80;52.60
1329;DHT22;658;48.820;9.354;2022-07-06T00:06:13;23.70;52.60
1329;DHT22;658;48.820;9.354;2022-07-06T00:10:14;23.70;52.60
1329;DHT22;658;48.820;9.354;2022-07-06T00:14:14;23.70;52.60
1329;DHT22;658;48.820;9.354;2022-07-06T00:18:15;23.70;52.70
1329;DHT22;658;48.820;9.354;2022-07-06T00:22:15;23.70;52.60
1329;DHT22;658;48.820;9.354;2022-07-06T00:26:16;23.70;52.70
1329;DHT22;658;48.820;9.354;2022-07-06T00:30:17;23.60;52.50
1329;DHT22;658;48.820;9.354;2022-07-06T00:34:17;23.70;52.70
1329;DHT22;658;48.820;9.354;2022-07-06T00:38:18;23.60;52.50
1329;DHT22;658;48.820;9.354;2022-07-06T00:42:19;23.60;52.60
1329;DHT22;658;48.820;9.354;2022-07-06T00:46:27;23.60;52.60
1329;DHT22;658;48.820;9.354;2022-07-06T00:50:28;23.60;52.70
1329;DHT22;658;48.820;9.354;2022-07-06T00:54:31;23.60;52.60
1329;DHT22;658;48.820;9.354;2022-07-06T00:58:32;23.60;52.60
1329;DHT22;658;48.820;9.354;2022-07-06T01:02:34;23.60;52.60
1329;DHT22;658;48.820;9.354;2022-07-06T01:06:36;23.60;52.60
1329;DHT22;658;48.820;9.354;2022-07-06T01:10:37;23.60;52.60
1329;DHT22;658;48.820;9.354;2022-07-06T01:14:37;23.50;52.60
1329;DHT22;658;48.820;9.354;2022-07-06T01:18:38;23.50;52.60
1329;DHT22;658;48.820;9.354;2022-07-06T01:22:39;23.50;52.60
1329;DHT22;658;48.820;9.354;2022-07-06T01:26:40;23.50;52.60
1329;DHT22;658;48.820;9.354;2022-07-06T01:30:41;23.50;52.60
1329;DHT22;658;48.820;9.354;2022-07-06T01:34:41;23.50;52.60
1329;DHT22;658;48.820;9.354;2022-07-06T01:42:46;23.40;52.60
1329;DHT22;658;48.820;9.354;2022-07-06T01:46:46;23.40;52.70
1329;DHT22;658;48.820;9.354;2022-07-06T01:50:47;23.40;52.70
1329;DHT22;658;48.820;9.354;2022-07-06T01:54:48;23.40;52.70
1329;DHT22;658;48.820;9.354;2022-07-06T01:58:48;23.40;52.80
1329;DHT22;658;48.820;9.354;2022-07-06T02:02:49;23.40;52.70
1329;DHT22;658;48.820;9.354;2022-07-06T02:06:50;23.40;52.70
1329;DHT22;658;48.820;9.354;2022-07-06T02:10:50;23.30;52.60
1329;DHT22;658;48.820;9.354;2022-07-06T02:14:51;23.30;52.70
1329;DHT22;658;48.820;9.354;2022-07-06T02:18:51;23.30;52.70
1329;DHT22;658;48.820;9.354;2022-07-06T02:22:52;23.30;52.70
1329;DHT22;658;48.820;9.354;2022-07-06T02:26:53;23.30;52.70
1329;DHT22;658;48.820;9.354;2022-07-06T02:30:53;23.30;52.70
1329;DHT22;658;48.820;9.354;2022-07-06T02:34:54;23.20;52.60
1329;DHT22;658;48.820;9.354;2022-07-06T02:38:54;23.20;52.60
1329;DHT22;658;48.820;9.354;2022-07-06T02:42:55;23.30;52.60
1329;DHT22;658;48.820;9.354;2022-07-06T02:46:55;23.20;52.50
1329;DHT22;658;48.820;9.354;2022-07-06T02:50:56;23.20;52.60
1329;DHT22;658;48.820;9.354;2022-07-06T02:54:57;23.20;52.60
1329;DHT22;658;48.820;9.354;2022-07-06T02:58:57;23.10;52.50
1329;DHT22;658;48.820;9.354;2022-07-06T03:02:58;23.10;52.50
1329;DHT22;658;48.820;9.354;2022-07-06T03:06:59;23.10;52.50
1329;DHT22;658;48.820;9.354;2022-07-06T03:11:00;23.10;52.50
1329;DHT22;658;48.820;9.354;2022-07-06T03:15:00;23.10;52.60
1329;DHT22;658;48.820;9.354;2022-07-06T03:19:01;23.00;52.50
1329;DHT22;658;48.820;9.354;2022-07-06T03:23:02;23.00;52.50
1329;DHT22;658;48.820;9.354;2022-07-06T03:27:03;23.00;52.50
1329;DHT22;658;48.820;9.354;2022-07-06T03:31:03;23.00;52.50
1329;DHT22;658;48.820;9.354;2022-07-06T03:35:04;23.00;52.50
1329;DHT22;658;48.820;9.354;2022-07-06T03:39:06;23.00;52.50
1329;DHT22;658;48.820;9.354;2022-07-06T03:43:07;23.00;52.50
1329;DHT22;658;48.820;9.354;2022-07-06T03:47:07;23.00;52.50
1329;DHT22;658;48.820;9.354;2022-07-06T03:51:08;22.90;52.40
1329;DHT22;658;48.820;9.354;2022-07-06T03:55:11;22.90;52.40
1329;DHT22;658;48.820;9.354;2022-07-06T03:59:11;22.90;52.40
1329;DHT22;658;48.820;9.354;2022-07-06T04:03:13;22.90;52.40
1329;DHT22;658;48.820;9.354;2022-07-06T04:07:13;23.00;52.40
1329;DHT22;658;48.820;9.354;2022-07-06T04:11:14;22.90;52.40
1329;DHT22;658;48.820;9.354;2022-07-06T04:15:15;22.90;52.50
1329;DHT22;658;48.820;9.354;2022-07-06T04:19:16;22.90;52.50
1329;DHT22;658;48.820;9.354;2022-07-06T04:23:16;22.80;52.50
1329;DHT22;658;48.820;9.354;2022-07-06T04:27:17;22.80;52.60
1329;DHT22;658;48.820;9.354;2022-07-06T04:31:17;22.90;52.70
1329;DHT22;658;48.820;9.354;2022-07-06T04:35:18;22.90;52.70
1329;DHT22;658;48.820;9.354;2022-07-06T04:39:19;22.80;52.60
1329;DHT22;658;48.820;9.354;2022-07-06T04:43:20;22.90;52.70
1329;DHT22;658;48.820;9.354;2022-07-06T04:47:20;22.90;52.70
1329;DHT22;658;48.820;9.354;2022-07-06T04:51:21;22.80;52.80
1329;DHT22;658;48.820;9.354;2022-07-06T04:55:21;22.70;53.30
1329;DHT22;658;48.820;9.354;2022-07-06T04:59:22;22.80;53.40
1329;DHT22;658;48.820;9.354;2022-07-06T05:03:23;22.70;53.50
1329;DHT22;658;48.820;9.354;2022-07-06T05:07:24;22.60;53.70
1329;DHT22;658;48.820;9.354;2022-07-06T05:11:29;22.60;53.90
1329;DHT22;658;48.820;9.354;2022-07-06T05:15:30;22.60;54.10
1329;DHT22;658;48.820;9.354;2022-07-06T05:19:31;22.60;53.90
1329;DHT22;658;48.820;9.354;2022-07-06T05:23:31;22.50;53.50
1329;DHT22;658;48.820;9.354;2022-07-06T05:27:32;22.30;53.70
1329;DHT22;658;48.820;9.354;2022-07-06T05:31:32;22.40;53.70
1329;DHT22;658;48.820;9.354;2022-07-06T05:35:33;22.40;54.00
1329;DHT22;658;48.820;9.354;2022-07-06T05:39:34;22.40;53.90
1329;DHT22;658;48.820;9.354;2022-07-06T05:43:37;22.20;53.60
1329;DHT22;658;48.820;9.354;2022-07-06T05:47:38;21.80;54.30
1329;DHT22;658;48.820;9.354;2022-07-06T05:51:58;21.90;54.40
1329;DHT22;658;48.820;9.354;2022-07-06T05:55:58;22.00;54.50
1329;DHT22;658;48.820;9.354;2022-07-06T05:59:59;22.00;54.30
1329;DHT22;658;48.820;9.354;2022-07-06T06:03:59;22.20;54.10
1329;DHT22;658;48.820;9.354;2022-07-06T06:08:00;22.10;54.20
1329;DHT22;658;48.820;9.354;2022-07-06T06:12:01;22.00;54.20
1329;DHT22;658;48.820;9.354;2022-07-06T06:16:01;22.00;54.50
1329;DHT22;658;48.820;9.354;2022-07-06T06:20:03;22.10;54.30
1329;DHT22;658;48.820;9.354;2022-07-06T06:24:05;22.20;54.70
1329;DHT22;658;48.820;9.354;2022-07-06T06:28:07;21.80;54.00
1329;DHT22;658;48.820;9.354;2022-07-06T06:32:08;21.70;54.20
1329;DHT22;658;48.820;9.354;2022-07-06T06:36:09;21.70;53.60
1329;DHT22;658;48.820;9.354;2022-07-06T06:40:10;21.70;53.60
1329;DHT22;658;48.820;9.354;2022-07-06T06:44:10;21.60;53.60
1329;DHT22;658;48.820;9.354;2022-07-06T06:48:11;21.70;53.60
1329;DHT22;658;48.820;9.354;2022-07-06T06:52:12;21.70;53.50
1329;DHT22;658;48.820;9.354;2022-07-06T06:56:12;21.90;53.50
1329;DHT22;658;48.820;9.354;2022-07-06T07:00:13;21.80;53.50
1329;DHT22;658;48.820;9.354;2022-07-06T07:04:14;21.60;53.60
1329;DHT22;658;48.820;9.354;2022-07-06T07:08:15;21.80;54.00
1329;DHT22;658;48.820;9.354;2022-07-06T07:12:16;21.60;53.30
1329;DHT22;658;48.820;9.354;2022-07-06T07:16:17;21.60;53.40
1329;DHT22;658;48.820;9.354;2022-07-06T07:20:29;21.50;53.70
1329;DHT22;658;48.820;9.354;2022-07-06T07:24:30;21.70;53.70
1329;DHT22;658;48.820;9.354;2022-07-06T07:28:31;21.70;53.20
1329;DHT22;658;48.820;9.354;2022-07-06T07:32:32;21.70;53.30
1329;DHT22;658;48.820;9.354;2022-07-06T07:36:33;21.60;53.10
1329;DHT22;658;48.820;9.354;2022-07-06T07:40:33;21.70;53.30
1329;DHT22;658;48.820;9.354;2022-07-06T07:44:35;21.70;53.20
1329;DHT22;658;48.820;9.354;2022-07-06T07:48:36;21.60;53.20
1329;DHT22;658;48.820;9.354;2022-07-06T07:52:37;21.50;53.10
1329;DHT22;658;48.820;9.354;2022-07-06T07:56:37;21.60;53.30
1329;DHT22;658;48.820;9.354;2022-07-06T08:00:41;21.60;53.30
1329;DHT22;658;48.820;9.354;2022-07-06T08:04:41;21.80;53.20
1329;DHT22;658;48.820;9.354;2022-07-06T08:08:42;21.90;53.10
1329;DHT22;658;48.820;9.354;2022-07-06T08:12:42;21.90;53.30
1329;DHT22;658;48.820;9.354;2022-07-06T08:16:43;21.80;53.40
1329;DHT22;658;48.820;9.354;2022-07-06T08:20:44;21.90;53.50
1329;DHT22;658;48.820;9.354;2022-07-06T08:24:44;21.70;53.20
1329;DHT22;658;48.820;9.354;2022-07-06T08:28:45;21.60;53.20
1329;DHT22;658;48.820;9.354;2022-07-06T08:32:46;21.70;53.30
1329;DHT22;658;48.820;9.354;2022-07-06T08:36:47;21.80;53.20
1329;DHT22;658;48.820;9.354;2022-07-06T08:40:49;21.90;53.20
1329;DHT22;658;48.820;9.354;2022-07-06T08:44:50;22.00;53.10
1329;DHT22;658;48.820;9.354;2022-07-06T08:48:54;22.10;53.00
1329;DHT22;658;48.820;9.354;2022-07-06T08:52:54;22.20;52.80
1329;DHT22;658;48.820;9.354;2022-07-06T08:56:56;22.30;52.80
1329;DHT22;658;48.820;9.354;2022-07-06T09:00:57;22.40;52.80
1329;DHT22;658;48.820;9.354;2022-07-06T09:04:58;22.50;52.80
1329;DHT22;658;48.820;9.354;2022-07-06T09:09:00;22.60;52.80
1329;DHT22;658;48.820;9.354;2022-07-06T09:13:08;22.60;52.80
1329;DHT22;658;48.820;9.354;2022-07-06T09:17:08;22.60;52.80
1329;DHT22;658;48.820;9.354;2022-07-06T09:21:09;22.60;52.80
1329;DHT22;658;48.820;9.354;2022-07-06T09:25:13;22.70;52.90
1329;DHT22;658;48.820;9.354;2022-07-06T09:29:14;22.70;52.80
1329;DHT22;658;48.820;9.354;2022-07-06T09:33:17;22.80;52.80
1329;DHT22;658;48.820;9.354;2022-07-06T09:37:18;22.80;52.90
1329;DHT22;658;48.820;9.354;2022-07-06T09:41:31;22.80;52.90
1329;DHT22;658;48.820;9.354;2022-07-06T09:45:36;22.90;53.00
1329;DHT22;658;48.820;9.354;2022-07-06T09:49:40;22.90;53.00
1329;DHT22;658;48.820;9.354;2022-07-06T09:53:40;22.90;53.00
1329;DHT22;658;48.820;9.354;2022-07-06T09:57:52;22.90;53.00
1329;DHT22;658;48.820;9.354;2022-07-06T10:01:59;22.90;53.10
1329;DHT22;658;48.820;9.354;2022-07-06T10:06:01;23.00;53.10
1329;DHT22;658;48.820;9.354;2022-07-06T10:10:01;23.00;53.10
1329;DHT22;658;48.820;9.354;2022-07-06T10:14:05;23.00;53.10
1329;DHT22;658;48.820;9.354;2022-07-06T10:18:09;23.00;53.10
1329;DHT22;658;48.820;9.354;2022-07-06T10:22:11;23.00;53.20
1329;DHT22;658;48.820;9.354;2022-07-06T10:26:12;23.10;53.30
1329;DHT22;658;48.820;9.354;2022-07-06T10:30:16;23.10;53.30
1329;DHT22;658;48.820;9.354;2022-07-06T10:34:18;23.10;53.40
1329;DHT22;658;48.820;9.354;2022-07-06T10:38:20;23.10;53.40
1329;DHT22;658;48.820;9.354;2022-07-06T10:42:43;23.10;53.50
1329;DHT22;658;48.820;9.354;2022-07-06T10:46:52;23.10;53.50
1329;DHT22;658;48.820;9.354;2022-07-06T10:50:54;23.10;53.50
1329;DHT22;658;48.820;9.354;2022-07-06T10:54:56;23.20;53.50
1329;DHT22;658;48.820;9.354;2022-07-06T10:59:02;23.20;53.50
1329;DHT22;658;48.820;9.354;2022-07-06T11:07:48;23.20;53.50
1329;DHT22;658;48.820;9.354;2022-07-06T11:11:50;23.20;53.60
1329;DHT22;658;48.820;9.354;2022-07-06T11:15:51;23.30;53.70
1329;DHT22;658;48.820;9.354;2022-07-06T11:20:09;23.30;53.70
1329;DHT22;658;48.820;9.354;2022-07-06T11:24:15;23.30;53.70
1329;DHT22;658;48.820;9.354;2022-07-06T11:28:16;23.30;53.70
1329;DHT22;658;48.820;9.354;2022-07-06T11:32:23;23.30;53.70
1329;DHT22;658;48.820;9.354;2022-07-06T11:36:24;23.30;53.70
1329;DHT22;658;48.820;9.354;2022-07-06T11:40:25;23.30;53.60
1329;DHT22;658;48.820;9.354;2022-07-06T11:44:26;23.30;53.60
1329;DHT22;658;48.820;9.354;2022-07-06T11:48:27;23.30;53.70
1329;DHT22;658;48.820;9.354;2022-07-06T11:52:29;23.30;53.60
1329;DHT22;658;48.820;9.354;2022-07-06T11:56:30;23.30;53.60
1329;DHT22;658;48.820;9.354;2022-07-06T12:00:31;23.40;53.70
1329;DHT22;658;48.820;9.354;2022-07-06T12:04:35;23.40;53.70
1329;DHT22;658;48.820;9.354;2022-07-06T12:08:48;23.40;54.00
1329;DHT22;658;48.820;9.354;2022-07-06T12:12:51;23.40;53.70
1329;DHT22;658;48.820;9.354;2022-07-06T12:16:51;23.40;53.70
1329;DHT22;658;48.820;9.354;2022-07-06T12:20:52;23.40;53.70
1329;DHT22;658;48.820;9.354;2022-07-06T12:24:55;23.50;53.70
1329;DHT22;658;48.820;9.354;2022-07-06T12:29:10;23.50;53.80
1329;DHT22;658;48.820;9.354;2022-07-06T12:33:13;23.50;54.30
1329;DHT22;658;48.820;9.354;2022-07-06T12:37:18;23.50;53.80
1329;DHT22;658;48.820;9.354;2022-07-06T12:41:33;23.50;53.70
1329;DHT22;658;48.820;9.354;2022-07-06T12:45:34;23.50;53.80
1329;DHT22;658;48.820;9.354;2022-07-06T12:49:37;23.50;53.80
1329;DHT22;658;48.820;9.354;2022-07-06T12:53:38;23.50;53.80
1329;DHT22;658;48.820;9.354;2022-07-06T12:57:47;23.50;53.80
1329;DHT22;658;48.820;9.354;2022-07-06T13:01:48;23.60;53.80
1329;DHT22;658;48.820;9.354;2022-07-06T13:05:50;23.60;53.90
1329;DHT22;658;48.820;9.354;2022-07-06T13:09:52;23.60;53.90
1329;DHT22;658;48.820;9.354;2022-07-06T13:13:53;23.60;53.90
1329;DHT22;658;48.820;9.354;2022-07-06T13:17:53;23.60;53.90
1329;DHT22;658;48.820;9.354;2022-07-06T13:21:54;23.60;53.90
1329;DHT22;658;48.820;9.354;2022-07-06T13:25:54;23.60;53.90
1329;DHT22;658;48.820;9.354;2022-07-06T13:29:55;23.60;53.90
1329;DHT22;658;48.820;9.354;2022-07-06T13:33:56;23.60;53.90
1329;DHT22;658;48.820;9.354;2022-07-06T13:37:57;23.60;54.00
1329;DHT22;658;48.820;9.354;2022-07-06T13:41:58;23.60;53.90
1329;DHT22;658;48.820;9.354;2022-07-06T13:45:59;23.60;53.90
1329;DHT22;658;48.820;9.354;2022-07-06T13:49:59;23.60;54.00
1329;DHT22;658;48.820;9.354;2022-07-06T13:54:01;23.70;54.10
1329;DHT22;658;48.820;9.354;2022-07-06T13:58:01;23.70;54.10
1329;DHT22;658;48.820;9.354;2022-07-06T14:02:02;23.70;54.10
1329;DHT22;658;48.820;9.354;2022-07-06T14:06:03;23.70;54.10
1329;DHT22;658;48.820;9.354;2022-07-06T14:10:05;23.70;54.20
1329;DHT22;658;48.820;9.354;2022-07-06T14:14:06;23.70;54.20
1329;DHT22;658;48.820;9.354;2022-07-06T14:18:07;23.70;54.30
1329;DHT22;658;48.820;9.354;2022-07-06T14:22:08;23.70;54.20
1329;DHT22;658;48.820;9.354;2022-07-06T14:26:09;23.70;54.30
1329;DHT22;658;48.820;9.354;2022-07-06T14:30:10;23.80;54.20
1329;DHT22;658;48.820;9.354;2022-07-06T14:34:11;23.70;54.20
1329;DHT22;658;48.820;9.354;2022-07-06T14:38:12;23.80;54.20
1329;DHT22;658;48.820;9.354;2022-07-06T14:42:12;23.80;54.20
1329;DHT22;658;48.820;9.354;2022-07-06T14:46:13;23.80;54.20
1329;DHT22;658;48.820;9.354;2022-07-06T14:50:14;23.80;54.30
1329;DHT22;658;48.820;9.354;2022-07-06T14:54:15;23.80;54.30
1329;DHT22;658;48.820;9.354;2022-07-06T14:58:17;23.80;54.30
1329;DHT22;658;48.820;9.354;2022-07-06T15:02:18;23.80;54.20
1329;DHT22;658;48.820;9.354;2022-07-06T15:06:19;23.80;54.20
1329;DHT22;658;48.820;9.354;2022-07-06T15:10:20;23.80;54.20
1329;DHT22;658;48.820;9.354;2022-07-06T15:14:21;23.80;54.20
1329;DHT22;658;48.820;9.354;2022-07-06T15:18:21;23.80;54.20
1329;DHT22;658;48.820;9.354;2022-07-06T15:22:22;23.80;54.20
1329;DHT22;658;48.820;9.354;2022-07-06T15:26:23;23.80;54.20
1329;DHT22;658;48.820;9.354;2022-07-06T15:30:25;23.80;54.20
1329;DHT22;658;48.820;9.354;2022-07-06T15:34:26;23.90;54.20
1329;DHT22;658;48.820;9.354;2022-07-06T15:38:26;23.90;54.30
1329;DHT22;658;48.820;9.354;2022-07-06T15:42:27;23.90;54.30
1329;DHT22;658;48.820;9.354;2022-07-06T15:46:28;23.90;54.30
1329;DHT22;658;48.820;9.354;2022-07-06T15:50:28;23.90;54.40
1329;DHT22;658;48.820;9.354;2022-07-06T15:54:29;23.90;54.30
1329;DHT22;658;48.820;9.354;2022-07-06T15:58:30;23.90;54.30
1329;DHT22;658;48.820;9.354;2022-07-06T16:02:30;23.90;54.30
1329;DHT22;658;48.820;9.354;2022-07-06T16:06:31;23.90;54.30
1329;DHT22;658;48.820;9.354;2022-07-06T16:10:32;23.90;54.40
1329;DHT22;658;48.820;9.354;2022-07-06T16:14:33;23.90;54.40
1329;DHT22;658;48.820;9.354;2022-07-06T16:18:33;23.90;54.40
1329;DHT22;658;48.820;9.354;2022-07-06T16:22:34;23.90;54.40
1329;DHT22;658;48.820;9.354;2022-07-06T16:26:35;23.90;54.40
1329;DHT22;658;48.820;9.354;2022-07-06T16:30:36;23.90;54.40
1329;DHT22;658;48.820;9.354;2022-07-06T16:34:36;23.90;54.40
1329;DHT22;658;48.820;9.354;2022-07-06T16:38:37;23.90;54.40
1329;DHT22;658;48.820;9.354;2022-07-06T16:42:39;23.90;54.40
1329;DHT22;658;48.820;9.354;2022-07-06T16:46:39;23.90;54.30
1329;DHT22;658;48.820;9.354;2022-07-06T16:50:40;23.90;54.40
1329;DHT22;658;48.820;9.354;2022-07-06T16:54:41;23.90;54.40
1329;DHT22;658;48.820;9.354;2022-07-06T16:58:41;24.00;54.50
1329;DHT22;658;48.820;9.354;2022-07-06T17:02:42;23.90;54.40
1329;DHT22;658;48.820;9.354;2022-07-06T17:06:43;24.00;54.50
1329;DHT22;658;48.820;9.354;2022-07-06T17:10:43;23.90;54.50
1329;DHT22;658;48.820;9.354;2022-07-06T17:14:44;23.90;54.50
1329;DHT22;658;48.820;9.354;2022-07-06T17:18:45;24.00;54.60
1329;DHT22;658;48.820;9.354;2022-07-06T17:22:46;24.00;54.60
1329;DHT22;658;48.820;9.354;2022-07-06T17:26:46;24.00;54.50
1329;DHT22;658;48.820;9.354;2022-07-06T17:30:47;24.00;54.70
1329;DHT22;658;48.820;9.354;2022-07-06T17:34:47;24.00;54.70
1329;DHT22;658;48.820;9.354;2022-07-06T17:38:48;24.00;54.70
1329;DHT22;658;48.820;9.354;2022-07-06T17:42:50;24.00;54.60
1329;DHT22;658;48.820;9.354;2022-07-06T17:46:51;24.00;54.70
1329;DHT22;658;48.820;9.354;2022-07-06T17:50:51;24.00;54.70
1329;DHT22;658;48.820;9.354;2022-07-06T17:54:52;24.00;54.70
1329;DHT22;658;48.820;9.354;2022-07-06T17:58:53;24.00;54.70
1329;DHT22;658;48.820;9.354;2022-07-06T18:02:54;24.00;54.70
1329;DHT22;658;48.820;9.354;2022-07-06T18:06:55;24.00;54.70
1329;DHT22;658;48.820;9.354;2022-07-06T18:11:02;24.00;54.70
1329;DHT22;658;48.820;9.354;2022-07-06T18:15:03;24.00;54.70
1329;DHT22;658;48.820;9.354;2022-07-06T18:19:04;24.00;54.70
1329;DHT22;658;48.820;9.354;2022-07-06T18:23:05;24.00;54.70
1329;DHT22;658;48.820;9.354;2022-07-06T18:27:06;24.00;54.60
1329;DHT22;658;48.820;9.354;2022-07-06T18:31:06;24.00;54.60
1329;DHT22;658;48.820;9.354;2022-07-06T18:35:07;24.00;54.60
1329;DHT22;658;48.820;9.354;2022-07-06T18:39:10;24.00;54.60
1329;DHT22;658;48.820;9.354;2022-07-06T18:43:11;24.00;54.60
1329;DHT22;658;48.820;9.354;2022-07-06T18:47:16;24.00;54.60
1329;DHT22;658;48.820;9.354;2022-07-06T18:51:21;24.00;54.60
1329;DHT22;658;48.820;9.354;2022-07-06T18:55:22;24.10;54.70
1329;DHT22;658;48.820;9.354;2022-07-06T18:59:22;24.10;54.60
1329;DHT22;658;48.820;9.354;2022-07-06T19:03:23;24.00;54.50
1329;DHT22;658;48.820;9.354;2022-07-06T19:07:23;24.00;54.50
1329;DHT22;658;48.820;9.354;2022-07-06T19:11:24;24.00;54.40
1329;DHT22;658;48.820;9.354;2022-07-06T19:15:25;24.00;54.30
1329;DHT22;658;48.820;9.354;2022-07-06T19:19:26;24.00;54.20
1329;DHT22;658;48.820;9.354;2022-07-06T19:23:27;24.00;53.90
1329;DHT22;658;48.820;9.354;2022-07-06T19:27:27;24.00;54.00
1329;DHT22;658;48.820;9.354;2022-07-06T19:31:28;23.90;53.50
1329;DHT22;658;48.820;9.354;2022-07-06T19:35:29;23.80;48.10
1329;DHT22;658;48.820;9.354;2022-07-06T19:39:30;23.50;46.20
1329;DHT22;658;48.820;9.354;2022-07-06T19:43:31;23.40;45.90
1329;DHT22;658;48.820;9.354;2022-07-06T19:47:32;23.30;45.30
1329;DHT22;658;48.820;9.354;2022-07-06T19:51:32;23.20;45.30
1329;DHT22;658;48.820;9.354;2022-07-06T19:55:33;23.30;46.20
1329;DHT22;658;48.820;9.354;2022-07-06T19:59:34;23.30;46.20
1329;DHT22;658;48.820;9.354;2022-07-06T20:03:36;23.30;46.00
1329;DHT22;658;48.820;9.354;2022-07-06T20:07:36;23.20;45.80
1329;DHT22;658;48.820;9.354;2022-07-06T20:11:37;23.20;46.10
1329;DHT22;658;48.820;9.354;2022-07-06T20:15:38;23.10;45.90
1329;DHT22;658;48.820;9.354;2022-07-06T20:19:38;22.90;45.80
1329;DHT22;658;48.820;9.354;2022-07-06T20:23:39;22.80;46.10
1329;DHT22;658;48.820;9.354;2022-07-06T20:27:40;22.80;46.00
1329;DHT22;658;48.820;9.354;2022-07-06T20:31:40;22.90;46.50
1329;DHT22;658;48.820;9.354;2022-07-06T20:35:41;22.90;46.50
1329;DHT22;658;48.820;9.354;2022-07-06T20:39:44;22.90;46.70
1329;DHT22;658;48.820;9.354;2022-07-06T20:43:44;22.90;46.90
1329;DHT22;658;48.820;9.354;2022-07-06T20:47:45;22.90;47.00
1329;DHT22;658;48.820;9.354;2022-07-06T20:51:46;22.90;47.10
1329;DHT22;658;48.820;9.354;2022-07-06T20:55:46;22.80;47.20
1329;DHT22;658;48.820;9.354;2022-07-06T20:59:47;22.90;47.50
1329;DHT22;658;48.820;9.354;2022-07-06T21:03:48;23.00;47.70
1329;DHT22;658;48.820;9.354;2022-07-06T21:07:48;23.00;47.90
1329;DHT22;658;48.820;9.354;2022-07-06T21:11:49;23.00;47.90
1329;DHT22;658;48.820;9.354;2022-07-06T21:15:50;23.00;48.00
1329;DHT22;658;48.820;9.354;2022-07-06T21:19:50;23.00;48.20
1329;DHT22;658;48.820;9.354;2022-07-06T21:23:51;23.00;48.30
1329;DHT22;658;48.820;9.354;2022-07-06T21:27:51;23.00;48.40
1329;DHT22;658;48.820;9.354;2022-07-06T21:31:53;23.00;48.50
1329;DHT22;658;48.820;9.354;2022-07-06T21:35:54;23.00;48.70
1329;DHT22;658;48.820;9.354;2022-07-06T21:39:55;22.90;48.60
1329;DHT22;658;48.820;9.354;2022-07-06T21:43:56;22.90;48.70
1329;DHT22;658;48.820;9.354;2022-07-06T21:47:56;22.90;48.70
1329;DHT22;658;48.820;9.354;2022-07-06T21:51:57;22.90;48.80
1329;DHT22;658;48.820;9.354;2022-07-06T21:55:58;22.90;49.00
1329;DHT22;658;48.820;9.354;2022-07-06T21:59:58;22.90;48.90
1329;DHT22;658;48.820;9.354;2022-07-06T22:03:59;22.90;48.90
1329;DHT22;658;48.820;9.354;2022-07-06T22:08:00;22.90;48.90
1329;DHT22;658;48.820;9.354;2022-07-06T22:12:01;22.80;49.00
1329;DHT22;658;48.820;9.354;2022-07-06T22:16:01;22.80;49.00
1329;DHT22;658;48.820;9.354;2022-07-06T22:20:03;22.80;49.00
1329;DHT22;658;48.820;9.354;2022-07-06T22:24:03;22.80;49.00
1329;DHT22;658;48.820;9.354;2022-07-06T22:28:04;22.80;49.10
1329;DHT22;658;48.820;9.354;2022-07-06T22:32:05;22.80;49.10
1329;DHT22;658;48.820;9.354;2022-07-06T22:36:06;22.80;49.10
1329;DHT22;658;48.820;9.354;2022-07-06T22:40:07;22.70;49.20
1329;DHT22;658;48.820;9.354;2022-07-06T22:44:26;22.70;49.30
1329;DHT22;658;48.820;9.354;2022-07-06T22:48:27;22.70;49.30
1329;DHT22;658;48.820;9.354;2022-07-06T22:52:28;22.60;49.20
1329;DHT22;658;48.820;9.354;2022-07-06T22:56:29;22.60;49.20
1329;DHT22;658;48.820;9.354;2022-07-06T23:00:29;22.70;49.40
1329;DHT22;658;48.820;9.354;2022-07-06T23:04:30;22.60;49.30
1329;DHT22;658;48.820;9.354;2022-07-06T23:08:31;22.60;49.20
1329;DHT22;658;48.820;9.354;2022-07-06T23:12:31;22.60;49.20
1329;DHT22;658;48.820;9.354;2022-07-06T23:16:32;22.60;49.30
1329;DHT22;658;48.820;9.354;2022-07-06T23:20:33;22.60;49.40
1329;DHT22;658;48.820;9.354;2022-07-06T23:24:33;22.50;49.50
1329;DHT22;658;48.820;9.354;2022-07-06T23:28:34;22.50;49.60
1329;DHT22;658;48.820;9.354;2022-07-06T23:32:35;22.50;49.70
1329;DHT22;658;48.820;9.354;2022-07-06T23:36:35;22.50;49.80
1329;DHT22;658;48.820;9.354;2022-07-06T23:40:36;22.50;49.90
1329;DHT22;658;48.820;9.354;2022-07-06T23:44:37;22.50;49.90
1329;DHT22;658;48.820;9.354;2022-07-06T23:48:37;22.50;50.00
1329;DHT22;658;48.820;9.354;2022-07-06T23:52:38;22.50;50.00
1329;DHT22;658;48.820;9.354;2022-07-06T23:56:39;22.50;50.00
